Time;durP1;ratioP1;P1;durP2;ratioP2;P2;SDS_P1;SDS_P2;PMS_P1;PMS_P2;Temp;Humidity;BMP_temperature;BMP_pressure;BME280_temperature;BME280_humidity;BME280_pressure;Samples;Min_cycle;Max_cycle;Signal;HPM_P1;HPM_P2
2021/08/11 00:00:13;;;;;;;6.10;2.70;;;;;;;20.00;55.63;99333.83;130120;1090;23049;-54
2021/08/11 00:02:42;;;;;;;3.85;2.80;;;;;;;19.97;55.79;99332.52;130433;1090;22537;-54
2021/08/11 00:05:11;;;;;;;5.17;3.00;;;;;;;19.95;56.12;99331.20;130380;1089;113990;-54
2021/08/11 00:07:41;;;;;;;2.90;2.65;;;;;;;19.93;55.88;99328.77;130462;1090;22638;-54
2021/08/11 00:10:10;;;;;;;3.08;2.58;;;;;;;19.92;56.25;99329.90;130351;1089;114741;-54
2021/08/11 00:12:39;;;;;;;4.33;2.55;;;;;;;19.90;56.13;99323.91;130471;1090;22557;-54
2021/08/11 00:15:09;;;;;;;4.05;2.48;;;;;;;19.87;56.43;99319.02;130464;1089;22556;-54
2021/08/11 00:17:46;;;;;;;3.28;2.98;;;;;;;19.86;56.59;99325.69;130321;1089;113719;-54
2021/08/11 00:20:14;;;;;;;4.60;3.18;;;;;;;19.83;56.73;99337.38;130441;1089;22599;-54
2021/08/11 00:22:43;;;;;;;6.25;3.05;;;;;;;19.80;56.92;99331.68;130343;1088;113936;-54
2021/08/11 00:25:12;;;;;;;4.20;3.15;;;;;;;19.78;57.06;99337.53;130409;1089;22586;-53
2021/08/11 00:27:41;;;;;;;5.05;3.28;;;;;;;19.73;57.19;99332.98;130331;1090;113834;-54
2021/08/11 00:30:16;;;;;;;5.10;3.30;;;;;;;19.69;57.14;99339.48;130432;1090;22563;-54
2021/08/11 00:32:45;;;;;;;4.55;3.70;;;;;;;19.67;57.52;99344.51;130427;1089;22557;-54
2021/08/11 00:35:15;;;;;;;4.55;2.98;;;;;;;19.65;57.50;99341.25;130264;1090;115689;-54
2021/08/11 00:37:45;;;;;;;3.93;3.50;;;;;;;19.61;57.44;99341.10;130438;1090;22549;-54
2021/08/11 00:40:14;;;;;;;5.48;3.25;;;;;;;19.59;57.96;99325.97;130328;1089;114242;-54
2021/08/11 00:42:44;;;;;;;4.18;3.45;;;;;;;19.57;57.75;99326.29;130445;1090;22543;-55
2021/08/11 00:45:14;;;;;;;4.35;3.68;;;;;;;19.54;57.96;99326.11;130425;1088;22541;-54
2021/08/11 00:47:43;;;;;;;6.68;3.23;;;;;;;19.52;58.08;99325.62;130322;1088;112948;-54
2021/08/11 00:50:12;;;;;;;4.98;3.08;;;;;;;19.47;58.27;99312.75;130126;1090;22644;-55
2021/08/11 00:52:41;;;;;;;4.85;3.68;;;;;;;19.42;58.65;99318.42;130089;1090;113728;-54
2021/08/11 00:55:15;;;;;;;7.25;3.05;;;;;;;19.38;58.74;99312.72;130483;1089;22551;-54
2021/08/11 00:57:46;;;;;;;3.90;3.30;;;;;;;19.35;58.98;99321.64;130319;1089;114886;-54
2021/08/11 01:00:17;;;;;;;4.83;3.30;;;;;;;19.31;59.22;99322.63;130160;1090;22575;-54
2021/08/11 01:02:46;;;;;;;8.43;3.95;;;;;;;19.28;59.18;99320.50;130444;1090;23023;-54
2021/08/11 01:05:18;;;;;;;4.53;3.03;;;;;;;19.28;59.44;99326.83;130198;1090;113967;-54
2021/08/11 01:07:48;;;;;;;5.33;3.80;;;;;;;19.28;59.44;99326.83;130446;1089;22589;-54
2021/08/11 01:10:17;;;;;;;3.23;2.93;;;;;;;19.25;59.37;99315.60;130226;1090;113867;-54
2021/08/11 01:12:47;;;;;;;3.45;3.15;;;;;;;19.21;59.64;99307.13;130423;1089;22612;-55
2021/08/11 01:15:17;;;;;;;6.18;3.45;;;;;;;19.15;59.89;99305.67;130111;1090;22564;-54
2021/08/11 01:17:47;;;;;;;5.60;3.03;;;;;;;19.12;59.99;99303.55;130269;1090;113747;-54
2021/08/11 01:20:16;;;;;;;5.33;3.30;;;;;;;19.08;60.08;99302.55;130459;1087;23373;-55
2021/08/11 01:22:50;;;;;;;6.80;3.55;;;;;;;19.04;60.33;99301.58;130269;1090;114665;-54
2021/08/11 01:25:26;;;;;;;5.25;3.78;;;;;;;19.00;60.54;99297.81;130457;1089;23526;-54
2021/08/11 01:28:07;;;;;;;9.80;3.93;;;;;;;18.98;60.91;99294.55;130318;1088;113835;-54
2021/08/11 01:31:07;;;;;;;5.70;3.40;;;;;;;18.95;60.89;99296.00;130433;1090;22541;-54
2021/08/11 01:33:51;;;;;;;5.48;3.65;;;;;;;18.92;61.09;99293.88;130279;1090;113942;-54
2021/08/11 01:36:39;;;;;;;5.55;3.90;;;;;;;18.90;61.27;99295.34;130412;1089;22573;-55
2021/08/11 01:39:20;;;;;;;6.18;4.68;;;;;;;18.90;61.62;99303.63;130375;1089;22561;-55
2021/08/11 01:41:53;;;;;;;5.65;4.53;;;;;;;18.90;61.68;99296.13;125696;1089;113995;-54
2021/08/11 01:44:23;;;;;;;4.80;3.53;;;;;;;18.90;61.52;99292.59;130060;1090;22608;-55
2021/08/11 01:46:54;;;;;;;5.08;3.88;;;;;;;18.87;61.73;99302.31;130346;1090;113937;-54
2021/08/11 01:49:23;;;;;;;7.58;4.03;;;;;;;18.84;61.63;99307.65;130388;1089;22566;-54
2021/08/11 01:51:53;;;;;;;4.55;3.45;;;;;;;18.81;62.16;99305.52;130007;1090;114702;-55
2021/08/11 01:54:23;;;;;;;6.35;3.23;;;;;;;18.80;61.98;99307.46;130157;1090;22519;-55
2021/08/11 01:56:52;;;;;;;8.18;3.45;;;;;;;18.78;62.11;99304.20;130179;1090;23104;-54
2021/08/11 01:59:22;;;;;;;6.80;3.35;;;;;;;18.74;62.11;99307.94;130208;1089;113590;-54
2021/08/11 02:01:51;;;;;;;8.55;3.78;;;;;;;18.68;62.41;99319.09;130323;1089;22564;-55
2021/08/11 02:04:20;;;;;;;4.30;3.15;;;;;;;18.65;62.51;99308.69;130227;1090;113772;-55
2021/08/11 02:06:50;;;;;;;4.78;3.60;;;;;;;18.62;62.47;99322.29;130134;1089;23013;-54
2021/08/11 02:09:19;;;;;;;3.75;3.40;;;;;;;18.58;62.65;99319.38;130151;1090;22523;-54
2021/08/11 02:11:50;;;;;;;4.78;3.65;;;;;;;18.57;62.87;99322.41;130313;1089;113937;-54
2021/08/11 02:14:19;;;;;;;6.73;3.73;;;;;;;18.55;63.15;99322.72;130077;1088;22565;-54
2021/08/11 02:16:52;;;;;;;5.10;3.98;;;;;;;18.54;62.96;99326.61;130344;1089;114601;-54
2021/08/11 02:19:21;;;;;;;4.53;3.75;;;;;;;18.51;63.35;99332.75;130402;1090;22521;-54
2021/08/11 02:21:50;;;;;;;5.50;3.73;;;;;;;18.49;63.40;99326.73;130333;1090;114502;-54
2021/08/11 02:24:22;;;;;;;10.75;4.28;;;;;;;18.48;63.39;99330.62;130461;1090;22557;-54
2021/08/11 02:26:55;;;;;;;8.80;3.93;;;;;;;18.48;63.76;99327.05;130422;1089;23236;-54
2021/08/11 02:29:34;;;;;;;9.15;3.80;;;;;;;18.46;63.76;99324.63;130015;1088;114101;-56
2021/08/11 02:32:21;;;;;;;5.35;3.40;;;;;;;18.46;63.83;99319.11;130363;1089;23468;-54
2021/08/11 02:35:24;;;;;;;5.03;3.75;;;;;;;18.45;64.20;99325.75;130345;1089;114020;-54
2021/08/11 02:38:13;;;;;;;6.65;3.93;;;;;;;18.43;64.08;99327.19;130489;1089;22547;-54
2021/08/11 02:40:48;;;;;;;4.73;3.63;;;;;;;18.40;64.07;99323.11;130279;1088;113937;-55
2021/08/11 02:43:35;;;;;;;7.10;4.43;;;;;;;18.38;64.13;99322.61;130376;1090;23655;-54
2021/08/11 02:46:08;;;;;;;7.58;4.45;;;;;;;18.36;64.15;99322.10;130311;1090;115028;-54
2021/08/11 02:48:38;;;;;;;5.55;4.65;;;;;;;18.36;64.35;99333.95;130129;1089;22688;-54
2021/08/11 02:51:08;;;;;;;5.85;4.55;;;;;;;18.37;64.63;99332.01;130274;1088;23747;-54
2021/08/11 02:53:41;;;;;;;6.10;4.50;;;;;;;18.36;64.68;99333.95;130290;1089;113955;-55
2021/08/11 02:56:13;;;;;;;6.73;4.68;;;;;;;18.36;64.88;99339.47;130433;1089;22541;-54
2021/08/11 02:58:42;;;;;;;8.08;4.20;;;;;;;18.37;65.14;99340.28;130047;1090;114202;-54
2021/08/11 03:01:11;;;;;;;10.73;4.50;;;;;;;18.34;64.98;99340.91;130326;1089;22571;-55
2021/08/11 03:03:41;;;;;;;7.63;4.40;;;;;;;18.34;65.01;99354.70;130322;1090;114127;-55
2021/08/11 03:06:11;;;;;;;6.13;4.78;;;;;;;18.32;65.05;99343.98;130413;1088;22625;-55
2021/08/11 03:08:41;;;;;;;9.43;5.73;;;;;;;18.31;65.02;99342.38;130315;1090;23447;-54
2021/08/11 03:11:10;;;;;;;6.13;4.25;;;;;;;18.30;65.35;99339.92;129999;1089;113873;-54
2021/08/11 03:13:42;;;;;;;9.03;5.05;;;;;;;18.28;65.33;99337.48;130401;1090;22573;-54
2021/08/11 03:16:12;;;;;;;8.00;4.90;;;;;;;18.27;65.44;99340.55;130251;1090;113948;-54
2021/08/11 03:18:41;;;;;;;6.93;4.55;;;;;;;18.22;65.45;99330.44;130486;1089;23366;-55
2021/08/11 03:21:12;;;;;;;5.35;4.60;;;;;;;18.28;65.70;99337.48;130429;1090;22570;-54
2021/08/11 03:23:41;;;;;;;8.50;5.15;;;;;;;18.30;65.60;99328.89;130333;1090;114844;-54
2021/08/11 03:26:11;;;;;;;8.53;4.45;;;;;;;18.33;65.74;99340.09;130448;1090;22558;-54
2021/08/11 03:28:40;;;;;;;5.45;4.30;;;;;;;18.37;65.60;99341.10;130292;1089;114608;-54
2021/08/11 03:31:10;;;;;;;8.83;5.10;;;;;;;18.43;65.79;99339.04;130379;1089;22572;-54
2021/08/11 03:33:41;;;;;;;6.60;4.83;;;;;;;18.49;65.83;99345.23;130332;1089;114619;-54
2021/08/11 03:36:11;;;;;;;6.90;5.00;;;;;;;18.55;66.12;99347.56;130455;1089;22535;-54
2021/08/11 03:38:40;;;;;;;7.73;5.08;;;;;;;18.61;65.52;99346.31;130432;1090;22564;-54
2021/08/11 03:41:09;;;;;;;10.40;5.95;;;;;;;18.66;65.49;99342.62;130334;1089;113745;-57
2021/08/11 03:43:38;;;;;;;11.45;5.38;;;;;;;18.69;65.29;99347.52;130441;1089;22528;-57
2021/08/11 03:46:10;;;;;;;8.83;5.50;;;;;;;18.73;65.55;99348.52;130312;1090;114153;-57
2021/08/11 03:48:39;;;;;;;8.88;5.68;;;;;;;18.78;65.60;99342.03;130420;1089;22555;-57
2021/08/11 03:51:08;;;;;;;5.95;5.18;;;;;;;18.82;65.53;99346.61;130128;1089;22543;-57
2021/08/11 03:53:39;;;;;;;7.40;5.70;;;;;;;18.86;65.58;99338.52;130374;1090;114242;-56
2021/08/11 03:56:08;;;;;;;6.73;5.43;;;;;;;18.90;65.47;99339.52;130448;1090;22579;-57
2021/08/11 03:58:37;;;;;;;7.05;5.43;;;;;;;18.94;65.70;99333.02;130369;1090;114113;-57
2021/08/11 04:01:07;;;;;;;7.43;5.38;;;;;;;18.98;65.34;99336.78;130423;1089;22588;-57
2021/08/11 04:03:36;;;;;;;14.40;5.23;;;;;;;19.01;65.42;99338.92;129991;1089;113640;-57
2021/08/11 04:06:05;;;;;;;9.83;4.88;;;;;;;19.05;65.32;99342.65;130153;1090;23192;-56
2021/08/11 04:08:34;;;;;;;7.93;4.70;;;;;;;19.13;65.51;99343.02;130441;1090;22550;-57
2021/08/11 04:11:02;;;;;;;9.43;4.83;;;;;;;19.16;65.47;99340.45;130301;1089;113792;-57
2021/08/11 04:13:32;;;;;;;17.23;6.83;;;;;;;19.21;65.21;99334.75;130457;1090;23174;-57
2021/08/11 04:16:01;;;;;;;9.50;5.33;;;;;;;19.24;65.11;99352.64;130335;1090;114259;-57
2021/08/11 04:18:31;;;;;;;15.10;6.63;;;;;;;19.26;65.51;99347.63;130447;1089;23299;-57
2021/08/11 04:21:00;;;;;;;10.13;6.25;;;;;;;19.29;65.47;99346.98;130451;1090;22530;-57
2021/08/11 04:23:28;;;;;;;15.33;5.23;;;;;;;19.32;65.53;99341.64;130336;1089;113995;-57
2021/08/11 04:25:57;;;;;;;10.45;5.78;;;;;;;19.38;65.65;99339.53;130447;1090;22575;-57
2021/08/11 04:28:26;;;;;;;27.28;6.83;;;;;;;19.45;65.43;99342.66;130315;1089;113901;-57
2021/08/11 04:30:59;;;;;;;17.30;5.95;;;;;;;19.52;65.26;99342.20;130398;1089;22540;-57
2021/08/11 04:33:28;;;;;;;10.63;6.15;;;;;;;19.55;65.30;99336.84;130304;1089;114454;-57
2021/08/11 04:35:57;;;;;;;13.13;5.65;;;;;;;19.61;65.31;99334.76;130481;1089;22960;-57
2021/08/11 04:38:26;;;;;;;12.45;5.45;;;;;;;19.65;65.45;99341.25;130421;1089;23543;-57
2021/08/11 04:43:57;;;;;;;7.23;5.75;;;;;;;19.78;65.52;99337.53;125573;1093;23453;-53
2021/08/11 04:46:25;;;;;;;9.70;5.88;;;;;;;19.82;65.46;99335.75;125236;1093;113578;-55
2021/08/11 04:48:54;;;;;;;9.95;5.93;;;;;;;19.87;65.52;99332.03;129942;1093;23397;-53
2021/08/11 04:51:23;;;;;;;9.68;5.35;;;;;;;19.93;65.73;99342.59;129760;1092;23165;-54
2021/08/11 04:53:52;;;;;;;8.43;5.95;;;;;;;19.99;65.97;99343.25;129690;1093;117917;-53
2021/08/11 04:56:21;;;;;;;14.13;6.35;;;;;;;20.11;65.90;99344.23;129748;1091;24484;-54
2021/08/11 04:58:50;;;;;;;12.75;6.08;;;;;;;20.29;66.00;99341.47;129679;1093;113983;-54
2021/08/11 05:01:19;;;;;;;10.83;5.85;;;;;;;20.53;65.43;99339.02;129755;1093;22562;-54
2021/08/11 05:03:49;;;;;;;6.25;5.18;;;;;;;20.83;64.73;99337.98;129693;1092;113790;-54
2021/08/11 05:06:18;;;;;;;8.88;5.20;;;;;;;21.15;63.96;99333.80;129774;1092;22543;-54
2021/08/11 05:08:48;;;;;;;9.70;5.03;;;;;;;21.47;63.26;99326.83;129782;1092;23569;-54
2021/08/11 05:11:17;;;;;;;15.78;6.53;;;;;;;21.81;62.82;99328.55;129639;1093;113538;-54
2021/08/11 05:13:47;;;;;;;13.45;5.95;;;;;;;22.17;61.76;99329.95;129754;1093;22598;-54
2021/08/11 05:16:15;;;;;;;23.78;6.10;;;;;;;22.54;61.25;99326.16;129628;1092;114198;-54
2021/08/11 05:18:44;;;;;;;15.70;5.25;;;;;;;22.90;60.04;99328.27;129753;1093;22599;-54
2021/08/11 05:21:13;;;;;;;14.78;6.85;;;;;;;23.21;59.24;99322.17;129748;1093;22526;-54
2021/08/11 05:23:42;;;;;;;16.63;6.13;;;;;;;23.57;58.39;99315.80;129673;1093;114007;-54
2021/08/11 05:26:11;;;;;;;15.28;5.20;;;;;;;23.90;57.30;99312.05;129759;1092;23396;-53
2021/08/11 05:28:39;;;;;;;14.73;5.50;;;;;;;24.19;56.67;99302.56;129607;1092;113894;-54
2021/08/11 05:31:08;;;;;;;14.98;6.30;;;;;;;24.41;55.91;99298.42;129807;1093;22536;-54
2021/08/11 05:33:37;;;;;;;15.45;7.05;;;;;;;24.59;55.46;99288.59;129608;1093;114514;-54
2021/08/11 05:36:07;;;;;;;17.18;6.90;;;;;;;24.82;54.93;99292.38;129743;1093;22584;-55
2021/08/11 05:38:37;;;;;;;14.30;7.28;;;;;;;25.10;54.12;99285.97;129677;1093;22543;-54
2021/08/11 05:41:06;;;;;;;14.83;6.65;;;;;;;25.28;54.01;99281.62;129626;1093;114721;-53
2021/08/11 05:43:35;;;;;;;13.75;5.75;;;;;;;25.45;53.37;99286.00;129780;1092;23882;-54
2021/08/11 05:46:05;;;;;;;12.63;5.95;;;;;;;25.63;52.94;99281.69;129668;1093;113975;-53
2021/08/11 05:48:34;;;;;;;10.65;5.65;;;;;;;25.76;52.41;99277.59;129845;1093;22542;-54
2021/08/11 05:51:02;;;;;;;10.25;5.78;;;;;;;25.85;52.53;99275.39;129747;1092;22606;-54
2021/08/11 05:53:31;;;;;;;17.68;5.88;;;;;;;25.89;52.92;99279.08;129689;1093;114050;-54
2021/08/11 05:56:00;;;;;;;8.85;5.45;;;;;;;25.88;53.33;99279.44;129732;1093;23322;-54
2021/08/11 05:58:28;;;;;;;10.10;5.23;;;;;;;25.79;52.71;99273.27;129646;1092;113612;-54
2021/08/11 06:00:57;;;;;;;15.75;5.58;;;;;;;25.70;53.20;99273.45;129810;1092;22567;-54
2021/08/11 06:03:26;;;;;;;12.48;5.35;;;;;;;25.60;53.44;99265.63;129745;1093;23808;-54
2021/08/11 06:06:00;;;;;;;10.03;5.75;;;;;;;25.46;53.63;99270.89;129687;1093;113614;-54
2021/08/11 06:08:31;;;;;;;10.60;5.65;;;;;;;25.35;54.12;99273.44;129774;1093;22561;-54
2021/08/11 06:11:00;;;;;;;11.10;5.70;;;;;;;25.25;54.60;99269.20;129649;1092;113954;-54
2021/08/11 06:13:29;;;;;;;10.20;6.18;;;;;;;25.13;54.86;99265.71;129765;1093;22565;-54
2021/08/11 06:15:58;;;;;;;10.20;5.15;;;;;;;24.96;55.57;99269.67;129653;1093;115595;-54
2021/08/11 06:18:27;;;;;;;39.15;7.25;;;;;;;24.83;56.39;99270.89;129756;1092;22572;-53
2021/08/11 06:20:56;;;;;;;15.63;5.83;;;;;;;24.76;56.53;99277.11;129764;1093;22573;-54
2021/08/11 06:23:24;;;;;;;9.18;5.05;;;;;;;24.65;56.38;99274.05;129683;1093;113770;-53
2021/08/11 06:25:53;;;;;;;16.08;5.38;;;;;;;24.60;56.93;99273.49;129719;1093;22563;-54
2021/08/11 06:28:22;;;;;;;10.63;4.98;;;;;;;24.54;56.59;99272.94;129686;1092;114319;-54
2021/08/11 06:30:51;;;;;;;7.58;4.93;;;;;;;24.45;57.27;99275.08;129820;1092;22553;-54
2021/08/11 06:33:20;;;;;;;9.48;5.08;;;;;;;24.42;57.89;99273.00;129811;1093;23159;-54
2021/08/11 06:35:49;;;;;;;12.33;5.33;;;;;;;24.39;57.70;99272.90;129647;1092;114753;-54
2021/08/11 06:38:18;;;;;;;12.50;5.33;;;;;;;24.33;58.21;99269.58;129852;1092;22587;-54
2021/08/11 06:40:47;;;;;;;20.30;6.80;;;;;;;24.26;58.57;99270.17;126482;1093;113856;-53
2021/08/11 06:43:18;;;;;;;10.35;5.30;;;;;;;24.23;58.64;99276.48;129839;1091;22584;-54
2021/08/11 06:45:47;;;;;;;9.15;4.80;;;;;;;24.27;59.20;99274.58;129683;1092;114144;-54
2021/08/11 06:48:19;;;;;;;9.30;4.38;;;;;;;24.31;59.27;99271.91;129791;1092;22590;-54
2021/08/11 06:50:49;;;;;;;6.15;3.60;;;;;;;24.33;58.53;99271.55;129771;1092;23228;-54
2021/08/11 06:53:17;;;;;;;10.13;4.05;;;;;;;24.30;58.89;99276.66;129750;1093;113662;-54
2021/08/11 06:55:48;;;;;;;8.23;4.68;;;;;;;24.28;57.86;99272.61;129798;1092;23347;-54
2021/08/11 06:58:17;;;;;;;7.63;4.50;;;;;;;24.26;58.33;99266.58;129719;1093;114850;-53
2021/08/11 07:00:46;;;;;;;10.73;3.95;;;;;;;24.26;58.38;99269.37;129846;1091;23504;-54
2021/08/11 07:03:16;;;;;;;6.78;3.33;;;;;;;24.30;57.21;99271.09;129828;1093;22533;-54
2021/08/11 07:05:45;;;;;;;12.85;3.80;;;;;;;24.33;57.57;99274.34;129675;1093;113979;-54
2021/08/11 07:08:15;;;;;;;6.25;2.90;;;;;;;24.36;56.90;99276.42;129827;1092;23673;-54
2021/08/11 07:10:44;;;;;;;6.05;3.08;;;;;;;24.41;56.34;99270.57;129670;1092;113988;-54
2021/08/11 07:13:14;;;;;;;4.43;3.53;;;;;;;24.46;55.99;99273.11;129821;1093;23187;-54
2021/08/11 07:15:43;;;;;;;3.88;2.73;;;;;;;24.50;56.28;99262.88;129727;1093;113710;-54
2021/08/11 07:18:19;;;;;;;8.38;3.53;;;;;;;24.52;55.81;99257.77;129762;1093;22585;-54
2021/08/11 07:20:49;;;;;;;10.63;3.03;;;;;;;24.53;53.86;99260.17;129786;1093;22546;-54
2021/08/11 07:23:17;;;;;;;5.50;3.28;;;;;;;24.55;52.42;99265.39;129752;1092;113625;-54
2021/08/11 07:25:46;;;;;;;5.95;3.53;;;;;;;24.56;53.14;99270.61;129792;1093;22583;-54
2021/08/11 07:28:15;;;;;;;6.23;2.90;;;;;;;24.57;53.07;99261.08;129751;1093;119009;-54
2021/08/11 07:30:45;;;;;;;3.85;2.73;;;;;;;24.57;52.58;99258.30;129838;1093;22541;-54
2021/08/11 07:33:14;;;;;;;3.93;3.50;;;;;;;24.62;53.42;99258.05;129805;1092;22526;-54
2021/08/11 07:35:43;;;;;;;5.43;3.18;;;;;;;24.67;52.16;99265.34;129697;1092;113408;-54
2021/08/11 07:38:12;;;;;;;3.50;3.07;;;;;;;24.72;50.68;99267.03;129451;1093;22532;-54
2021/08/11 07:40:41;;;;;;;4.65;2.80;;;;;;;24.76;51.32;99262.37;129717;1093;113472;-54
2021/08/11 07:43:10;;;;;;;8.35;3.30;;;;;;;24.79;51.67;99270.83;129721;1093;24907;-53
2021/08/11 07:45:39;;;;;;;7.08;3.63;;;;;;;24.78;52.24;99263.63;129727;1093;113837;-54
2021/08/11 07:48:08;;;;;;;4.68;3.23;;;;;;;24.86;51.77;99271.00;129804;1093;22585;-53
2021/08/11 07:50:37;;;;;;;9.53;3.28;;;;;;;24.88;51.71;99268.66;129820;1093;22575;-53
2021/08/11 07:53:06;;;;;;;3.48;3.08;;;;;;;24.96;51.64;99266.88;129750;1091;113228;-53
2021/08/11 07:55:35;;;;;;;3.93;2.80;;;;;;;25.01;50.66;99270.22;129823;1092;23983;-54
2021/08/11 07:58:05;;;;;;;3.18;2.75;;;;;;;25.03;50.28;99257.91;129675;1093;113509;-53
2021/08/11 08:00:33;;;;;;;2.98;2.68;;;;;;;25.11;50.11;99265.25;129816;1093;22562;-53
2021/08/11 08:03:03;;;;;;;4.43;3.58;;;;;;;25.14;50.34;99264.54;129785;1093;22553;-53
2021/08/11 08:05:36;;;;;;;6.90;2.88;;;;;;;25.17;50.15;99266.61;129707;1092;113600;-53
2021/08/11 08:08:05;;;;;;;5.90;2.60;;;;;;;25.20;49.94;99258.34;129839;1092;22537;-54
2021/08/11 08:10:34;;;;;;;7.10;3.28;;;;;;;25.22;50.37;99269.14;129693;1092;113620;-54
2021/08/11 08:13:03;;;;;;;8.10;4.03;;;;;;;25.25;49.65;99268.39;129757;1093;23881;-54
2021/08/11 08:15:31;;;;;;;3.60;3.03;;;;;;;25.26;49.62;99250.48;129835;1092;22532;-54
2021/08/11 08:18:00;;;;;;;5.03;2.98;;;;;;;25.30;49.63;99262.55;129724;1092;113896;-54
2021/08/11 08:20:30;;;;;;;4.23;2.98;;;;;;;25.34;49.28;99260.66;129814;1093;22541;-54
2021/08/11 08:22:58;;;;;;;3.78;2.80;;;;;;;25.36;49.29;99264.70;129691;1093;113610;-54
2021/08/11 08:25:27;;;;;;;8.40;2.60;;;;;;;25.40;49.57;99250.82;129817;1093;22563;-54
2021/08/11 08:27:56;;;;;;;5.93;2.73;;;;;;;25.43;49.37;99255.68;129667;1093;113697;-54
2021/08/11 08:30:46;;;;;;;18.20;3.10;;;;;;;25.44;49.14;99246.14;129791;1093;22570;-54
2021/08/11 08:33:15;;;;;;;4.25;2.73;;;;;;;25.46;48.75;99248.57;129837;1092;22532;-54
2021/08/11 08:35:44;;;;;;;4.58;2.65;;;;;;;25.47;48.16;99248.21;129686;1093;114153;-54
2021/08/11 08:38:13;;;;;;;3.10;2.38;;;;;;;25.48;48.28;99246.23;129839;1093;22615;-54
2021/08/11 08:41:02;;;;;;;4.57;2.90;;;;;;;25.47;48.60;99244.61;126038;1093;113679;-53
2021/08/11 08:43:31;;;;;;;4.28;2.55;;;;;;;25.50;48.05;99241.10;129782;1093;23089;-54
2021/08/11 08:46:01;;;;;;;3.33;2.80;;;;;;;25.51;47.95;99243.53;129675;1093;115250;-54
2021/08/11 08:48:30;;;;;;;5.00;2.85;;;;;;;25.55;47.90;99249.16;129772;1093;22615;-56
2021/08/11 08:50:58;;;;;;;7.25;2.60;;;;;;;25.57;47.85;99242.05;129782;1093;23307;-54
2021/08/11 08:53:27;;;;;;;5.45;2.48;;;;;;;25.63;46.71;99239.83;129660;1092;114031;-54
2021/08/11 08:55:57;;;;;;;9.48;3.05;;;;;;;25.62;45.33;99224.26;129847;1093;22628;-54
2021/08/11 08:58:26;;;;;;;3.55;2.43;;;;;;;25.67;45.86;99238.74;129674;1093;114532;-54
2021/08/11 09:00:55;;;;;;;3.10;2.48;;;;;;;25.72;46.48;99237.63;129832;1092;22544;-54
2021/08/11 09:03:25;;;;;;;5.68;2.88;;;;;;;25.77;45.78;99230.95;129836;1093;22594;-54
2021/08/11 09:05:54;;;;;;;2.75;2.55;;;;;;;25.81;44.50;99231.84;129667;1092;113266;-53
2021/08/11 09:08:22;;;;;;;6.68;3.00;;;;;;;25.84;44.33;99219.92;129796;1093;22541;-54
2021/08/11 09:10:51;;;;;;;2.83;2.63;;;;;;;25.87;43.85;99236.75;129724;1093;114258;-54
2021/08/11 09:13:21;;;;;;;2.83;2.48;;;;;;;25.90;44.84;99230.45;129827;1092;22537;-54
2021/08/11 09:15:54;;;;;;;4.13;2.53;;;;;;;25.93;43.48;99226.92;129715;1092;114023;-54
2021/08/11 09:18:26;;;;;;;3.95;2.68;;;;;;;25.91;43.21;99220.89;129796;1092;23361;-54
2021/08/11 09:21:03;;;;;;;3.45;2.95;;;;;;;26.01;42.14;99222.28;129781;1092;22612;-54
2021/08/11 09:23:34;;;;;;;;;;;;;;;26.04;42.04;99219.56;129729;1093;114094;-54
2021/08/11 09:26:05;;;;;;;3.13;2.50;;;;;;;26.08;41.84;99219.64;129806;1093;21229;-54
2021/08/11 09:28:35;;;;;;;3.98;2.40;;;;;;;26.10;41.60;99222.88;129688;1092;114237;-54
2021/08/11 09:31:25;;;;;;;4.58;2.43;;;;;;;26.11;41.12;99230.08;129823;1093;22513;-54
2021/08/11 09:33:56;;;;;;;3.58;2.58;;;;;;;26.11;42.02;99223.69;129682;1092;115094;-54
2021/08/11 09:36:25;;;;;;;3.68;2.58;;;;;;;26.11;41.03;99218.91;129809;1092;23208;-54
2021/08/11 09:38:55;;;;;;;4.23;2.93;;;;;;;26.12;40.77;99217.71;129803;1092;22541;-54
2021/08/11 09:41:25;;;;;;;4.88;2.73;;;;;;;26.14;41.49;99218.16;129688;1092;114317;-56
2021/08/11 09:44:10;;;;;;;2.95;2.40;;;;;;;26.18;41.49;99219.03;129741;1094;23159;-56
2021/08/11 09:46:39;;;;;;;6.73;2.68;;;;;;;26.22;41.15;99222.72;129698;1093;116078;-56
2021/08/11 09:49:15;;;;;;;4.38;3.10;;;;;;;26.27;39.85;99221.59;129758;1093;23448;-56
2021/08/11 09:52:00;;;;;;;10.80;2.78;;;;;;;26.29;40.40;99213.68;129655;1093;114071;-56
2021/08/11 09:54:30;;;;;;;9.15;3.35;;;;;;;26.32;41.42;99218.53;129837;1092;22534;-56
2021/08/11 09:56:59;;;;;;;6.65;2.68;;;;;;;26.35;39.79;99213.02;129802;1092;22592;-56
2021/08/11 09:59:28;;;;;;;3.13;2.50;;;;;;;26.39;40.16;99213.09;129688;1092;113787;-56
2021/08/11 10:02:16;;;;;;;2.78;2.50;;;;;;;26.45;40.45;99208.80;129783;1093;22527;-56
2021/08/11 10:04:46;;;;;;;4.80;2.88;;;;;;;26.52;40.85;99206.15;129654;1093;114046;-56
2021/08/11 10:07:14;;;;;;;3.33;2.50;;;;;;;26.55;41.14;99208.17;129777;1092;22622;-56
2021/08/11 10:10:00;;;;;;;3.63;2.83;;;;;;;26.59;41.41;99213.83;129706;1093;113879;-56
2021/08/11 10:12:32;;;;;;;5.30;3.03;;;;;;;26.59;40.94;99203.46;129766;1093;22543;-56
2021/08/11 10:15:06;;;;;;;10.75;3.03;;;;;;;26.60;41.00;99199.49;129778;1093;22535;-56
2021/08/11 10:17:35;;;;;;;4.00;2.63;;;;;;;26.63;40.58;99197.94;129962;1090;113943;-56
2021/08/11 10:20:05;;;;;;;5.90;2.73;;;;;;;26.66;39.49;99192.42;130102;1090;22552;-57
2021/08/11 10:22:34;;;;;;;4.03;2.33;;;;;;;26.72;39.08;99192.89;129984;1090;114318;-56
2021/08/11 10:25:04;;;;;;;4.80;2.63;;;;;;;26.76;39.64;99194.58;130099;1090;22586;-56
2021/08/11 10:27:34;;;;;;;6.80;2.98;;;;;;;26.81;39.13;99192.66;130087;1090;22598;-56
2021/08/11 10:30:03;;;;;;;3.70;2.48;;;;;;;26.84;38.67;99186.30;130025;1090;114535;-56
2021/08/11 10:32:32;;;;;;;4.13;2.90;;;;;;;26.86;38.15;99187.55;130078;1090;22579;-56
2021/08/11 10:35:02;;;;;;;12.55;3.00;;;;;;;26.90;38.67;99190.40;129986;1089;114500;-57
2021/08/11 10:37:30;;;;;;;7.33;2.98;;;;;;;26.92;38.07;99188.05;130110;1090;23142;-56
2021/08/11 10:40:01;;;;;;;4.75;3.00;;;;;;;26.96;37.00;99189.75;129960;1090;114469;-54
2021/08/11 10:42:30;;;;;;;3.75;2.40;;;;;;;27.01;35.13;99189.41;130113;1090;23032;-54
2021/08/11 10:44:59;;;;;;;2.48;2.28;;;;;;;27.06;36.07;99191.09;130146;1090;23148;-54
2021/08/11 10:47:32;;;;;;;3.53;2.10;;;;;;;27.10;36.37;99175.98;129979;1090;114372;-54
2021/08/11 10:50:03;;;;;;;4.25;2.40;;;;;;;27.13;35.50;99182.80;130138;1090;23448;-54
2021/08/11 10:52:32;;;;;;;3.00;2.28;;;;;;;27.16;36.00;99175.64;130008;1090;113775;-54
2021/08/11 10:55:02;;;;;;;3.13;2.25;;;;;;;27.18;35.94;99170.48;130108;1090;22673;-54
2021/08/11 10:57:34;;;;;;;4.48;2.40;;;;;;;27.27;35.70;99173.84;130130;1090;22557;-54
2021/08/11 11:00:21;;;;;;;6.13;2.70;;;;;;;27.30;34.80;99173.05;130041;1090;113611;-54
2021/08/11 11:02:52;;;;;;;;;;;;;;;27.31;35.12;99174.67;130149;1090;22552;-54
2021/08/11 11:05:24;;;;;;;4.93;2.53;;;;;;;27.31;34.93;99169.08;130041;1088;100099;-54
2021/08/11 11:08:15;;;;;;;3.83;2.30;;;;;;;27.32;34.56;99177.09;130134;1089;22674;-54
2021/08/11 11:10:47;;;;;;;28.60;3.98;;;;;;;27.34;35.13;99162.73;130040;1090;113795;-54
2021/08/11 11:13:23;;;;;;;8.55;2.55;;;;;;;27.34;35.96;99165.52;130131;1090;22969;-54
2021/08/11 11:15:55;;;;;;;4.55;2.63;;;;;;;27.38;35.69;99169.19;130047;1088;113887;-54
2021/08/11 11:18:24;;;;;;;3.20;2.40;;;;;;;27.44;35.55;99179.66;130163;1090;22517;-54
2021/08/11 11:20:56;;;;;;;2.55;2.30;;;;;;;27.48;34.69;99170.51;130079;1090;22512;-54
2021/08/11 11:23:36;;;;;;;2.38;2.18;;;;;;;27.49;35.16;99156.14;130023;1090;115032;-54
2021/08/11 11:26:15;;;;;;;4.58;2.50;;;;;;;27.51;35.12;99161.36;130188;1089;22621;-54
2021/08/11 11:29:10;;;;;;;6.08;2.38;;;;;;;27.55;35.42;99157.43;130096;1090;115250;-54
2021/08/11 11:31:55;;;;;;;2.30;1.90;;;;;;;27.60;36.39;99157.11;130154;1089;22565;-54
2021/08/11 11:34:28;;;;;;;3.00;2.78;;;;;;;27.62;36.23;99151.94;129968;1090;114517;-54
2021/08/11 11:36:57;;;;;;;2.65;2.43;;;;;;;27.66;37.42;99146.39;130190;1090;22540;-54
2021/08/11 11:39:33;;;;;;;4.68;2.80;;;;;;;27.70;36.19;99150.83;129488;1090;23232;-55